Map

Track Data

SID SEASON NUMBER BASIN SUBBASIN NAME ISO_TIME NATURE LAT LON WMO_WIND WMO_PRES WMO_AGENCY TRACK_TYPE DIST2LAND LANDFALL IFLAG USA_AGENCY USA_ATCF_ID USA_LAT USA_LON USA_RECORD USA_STATUS USA_WIND USA_PRES USA_SSHS USA_R34_NE USA_R34_SE USA_R34_SW USA_R34_NW USA_R50_NE USA_R50_SE USA_R50_SW USA_R50_NW USA_R64_NE USA_R64_SE USA_R64_SW USA_R64_NW USA_POCI USA_ROCI USA_RMW USA_EYE TOKYO_LAT TOKYO_LON TOKYO_GRADE TOKYO_WIND TOKYO_PRES TOKYO_R50_DIR TOKYO_R50_LONG TOKYO_R50_SHORT TOKYO_R30_DIR TOKYO_R30_LONG TOKYO_R30_SHORT TOKYO_LAND CMA_LAT CMA_LON CMA_CAT CMA_WIND CMA_PRES HKO_LAT HKO_LON HKO_CAT HKO_WIND HKO_PRES NEWDELHI_LAT NEWDELHI_LON NEWDELHI_GRADE NEWDELHI_WIND NEWDELHI_PRES NEWDELHI_CI NEWDELHI_DP NEWDELHI_POCI REUNION_LAT REUNION_LON REUNION_TYPE REUNION_WIND REUNION_PRES REUNION_TNUM REUNION_CI REUNION_RMW REUNION_R34_NE REUNION_R34_SE REUNION_R34_SW REUNION_R34_NW REUNION_R50_NE REUNION_R50_SE REUNION_R50_SW REUNION_R50_NW REUNION_R64_NE REUNION_R64_SE REUNION_R64_SW REUNION_R64_NW BOM_LAT BOM_LON BOM_TYPE BOM_WIND BOM_PRES BOM_TNUM BOM_CI BOM_RMW BOM_R34_NE BOM_R34_SE BOM_R34_SW BOM_R34_NW BOM_R50_NE BOM_R50_SE BOM_R50_SW BOM_R50_NW BOM_R64_NE BOM_R64_SE BOM_R64_SW BOM_R64_NW BOM_ROCI BOM_POCI BOM_EYE BOM_POS_METHOD BOM_PRES_METHOD NADI_LAT NADI_LON NADI_CAT NADI_WIND NADI_PRES WELLINGTON_LAT WELLINGTON_LON WELLINGTON_WIND WELLINGTON_PRES DS824_LAT DS824_LON DS824_STAGE DS824_WIND DS824_PRES TD9636_LAT TD9636_LON TD9636_STAGE TD9636_WIND TD9636_PRES TD9635_LAT TD9635_LON TD9635_WIND TD9635_PRES TD9635_ROCI NEUMANN_LAT NEUMANN_LON NEUMANN_CLASS NEUMANN_WIND NEUMANN_PRES MLC_LAT MLC_LON MLC_CLASS MLC_WIND MLC_PRES USA_GUST BOM_GUST BOM_GUST_PER REUNION_GUST REUNION_GUST_PER USA_SEAHGT USA_SEARAD_NE USA_SEARAD_SE USA_SEARAD_SW USA_SEARAD_NW STORM_SPEED STORM_DIR
1909262N18120 1909 51 WP MM NOT_NAMED 1909-09-18 16:00:00 NR 17.6000 120.000 main 31 31 __________O___ -1 17.6000 120.000 2 3 0
1909262N18120 1909 51 WP MM NOT_NAMED 1909-09-18 18:00:00 NR 17.6994 120.006 main 33 33 __________P___ -1 17.6994 120.006 2 3 0
1909262N18120 1909 51 WP MM NOT_NAMED 1909-09-18 21:00:00 NR 17.8549 120.006 main 46 46 __________P___ -1 17.8549 120.006 2 3 356
1909262N18120 1909 51 WP MM NOT_NAMED 1909-09-19 00:00:00 NR 18.0271 119.985 main 52 52 __________P___ -1 18.0271 119.985 2 4 350
1909262N18120 1909 51 WP MM NOT_NAMED 1909-09-19 03:00:00 NR 18.2260 119.929 main 64 64 __________P___ -1 18.2260 119.929 2 4 343
1909262N18120 1909 51 WP MM NOT_NAMED 1909-09-19 04:00:00 NR 18.3000 119.900 main 67 67 __________O___ -1 18.3000 119.900 2 5 338
1909262N18120 1909 51 WP MM NOT_NAMED 1909-09-19 06:00:00 NR 18.4606 119.826 main 85 85 __________P___ -1 18.4606 119.826 2 6 334
1909262N18120 1909 51 WP MM NOT_NAMED 1909-09-19 09:00:00 NR 18.7266 119.684 main 100 100 __________P___ -1 18.7266 119.684 2 6 332
1909262N18120 1909 51 WP MM NOT_NAMED 1909-09-19 12:00:00 NR 19.0117 119.520 main 133 133 __________P___ -1 19.0117 119.520 2 7 332
1909262N18120 1909 51 WP MM NOT_NAMED 1909-09-19 15:00:00 NR 19.3034 119.353 main 161 169 __________P___ -1 19.3034 119.353 2 7 332
1909262N18120 1909 51 WP MM NOT_NAMED 1909-09-19 16:00:00 NR 19.4000 119.300 main 176 176 __________O___ -1 19.4000 119.300 2 6 334
1909262N18120 1909 51 WP MM NOT_NAMED 1909-09-19 18:00:00 NR 19.5859 119.206 main 199 199 __________P___ -1 19.5859 119.206 2 6 335
1909262N18120 1909 51 WP MM NOT_NAMED 1909-09-19 21:00:00 NR 19.8649 119.070 main 230 230 __________P___ -1 19.8649 119.070 2 6 336
1909262N18120 1909 51 WP MM NOT_NAMED 1909-09-20 00:00:00 NR 20.1412 118.945 main 260 250 __________P___ -1 20.1412 118.945 2 6 338
1909262N18120 1909 51 WP MM NOT_NAMED 1909-09-20 03:00:00 NR 20.4117 118.834 main 258 251 __________P___ -1 20.4117 118.834 2 6 339
1909262N18120 1909 51 WP MM NOT_NAMED 1909-09-20 04:00:00 NR 20.5000 118.800 main 251 244 __________O___ -1 20.5000 118.800 2 5 340
1909262N18120 1909 51 WP MM NOT_NAMED 1909-09-20 06:00:00 NR 20.6697 118.738 main 246 235 __________P___ -1 20.6697 118.738 2 5 342
1909262N18120 1909 51 WP MM NOT_NAMED 1909-09-20 09:00:00 NR 20.9179 118.659 main 235 227 __________P___ -1 20.9179 118.659 2 5 345
1909262N18120 1909 51 WP MM NOT_NAMED 1909-09-20 12:00:00 NR 21.1641 118.589 main 227 220 __________P___ -1 21.1641 118.589 2 5 346
1909262N18120 1909 51 WP MM NOT_NAMED 1909-09-20 15:00:00 NR 21.4145 118.522 main 222 216 __________P___ -1 21.4145 118.522 2 5 347
1909262N18120 1909 51 WP MM NOT_NAMED 1909-09-20 16:00:00 NR 21.5000 118.500 main 216 210 __________O___ -1 21.5000 118.500 2 5 341
1909262N18120 1909 51 WP MM NOT_NAMED 1909-09-20 18:00:00 NR 21.6514 118.440 main 215 206 __________P___ -1 21.6514 118.440 2 5 340
1909262N18120 1909 51 WP MM NOT_NAMED 1909-09-20 21:00:00 NR 21.8843 118.349 main 213 192 __________P___ -1 21.8843 118.349 2 5 342
1909262N18120 1909 51 WP MM NOT_NAMED 1909-09-21 00:00:00 NR 22.1490 118.269 main 192 147 __________P___ -1 22.1490 118.269 2 6 348
1909262N18120 1909 51 WP MM NOT_NAMED 1909-09-21 03:00:00 NR 22.4736 118.212 main 147 137 __________P___ -1 22.4736 118.212 2 7 351
1909262N18120 1909 51 WP MM NOT_NAMED 1909-09-21 04:00:00 NR 22.6000 118.200 main 137 108 __________O___ -1 22.6000 118.200 2 9 357
1909262N18120 1909 51 WP MM NOT_NAMED 1909-09-21 06:00:00 NR 22.9008 118.188 main 108 69 __________P___ -1 22.9008 118.188 2 10 358
1909262N18120 1909 51 WP MM NOT_NAMED 1909-09-21 09:00:00 NR 23.4152 118.196 main 69 30 __________P___ -1 23.4152 118.196 2 11 3
1909262N18120 1909 51 WP MM NOT_NAMED 1909-09-21 12:00:00 NR 23.9694 118.229 main 30 10 __________P___ -1 23.9694 118.229 2 11 4
1909262N18120 1909 51 WP MM NOT_NAMED 1909-09-21 15:00:00 NR 24.5228 118.280 main 10 0 __________P___ -1 24.5228 118.280 2 11 5
1909262N18120 1909 51 WP MM NOT_NAMED 1909-09-21 16:00:00 NR 24.7000 118.300 main 0 0 __________O___ -1 24.7000 118.300 2 10 6
1909262N18120 1909 51 WP MM NOT_NAMED 1909-09-21 18:00:00 NR 25.0373 118.343 main 0 0 __________P___ -1 25.0373 118.343 2 10 7
1909262N18120 1909 51 WP MM NOT_NAMED 1909-09-21 21:00:00 NR 25.5064 118.414 main 0 0 __________P___ -1 25.5064 118.414 2 9 8
1909262N18120 1909 51 WP MM NOT_NAMED 1909-09-22 00:00:00 NR 25.9434 118.492 main 0 0 __________P___ -1 25.9434 118.492 2 9 10
1909262N18120 1909 51 WP MM NOT_NAMED 1909-09-22 03:00:00 NR 26.3621 118.573 main 0 0 __________P___ -1 26.3621 118.573 2 9 10
1909262N18120 1909 51 WP MM NOT_NAMED 1909-09-22 04:00:00 NR 26.5000 118.600 main 0 __________O___ -1 26.5000 118.600 2 8 0

Digital Typhoon Data and Search

About IBTrACS Database

This database is a web-friendly format of International Best Track Archive for Climate Stewardship (IBTrACS), a global best track data archive curated by NOAA dating back to 1842.

Updated: 2021-10-08